Aviation Digital Data Service (ADDS)

Output produced by METARs form (1213 UTC 24 March 2017)
found at http://www.aviationweather.gov/adds/metars/
 
METAR text: RJNK 241200Z VRB02KT 9999 FEW030 BKN050 BKN080 04/M03 Q1022
Conditions at: RJNK (KOMATSU (CIV/JAS, JP) observed 1200 UTC 24 March 2017
Temperature: 4.0°C (39°F)
Dewpoint: -3.0°C (27°F) [RH = 60%]
Pressure (altimeter): 30.18 inches Hg (1022.0 mb)
Winds: variable direction winds at 2 MPH (2 knots; 1.0 m/s)
Visibility: 6 or more miles (10+ km)
Ceiling: 5000 feet AGL
Clouds: few clouds at 3000 feet AGL
broken clouds at 5000 feet AGL
broken clouds at 8000 feet AGL
Weather: no significant weather observed at this time